Time;durP1;ratioP1;P1;durP2;ratioP2;P2;SDS_P1;SDS_P2;PMS_P1;PMS_P2;Temp;Humidity;BMP_temperature;BMP_pressure;BME280_temperature;BME280_humidity;BME280_pressure;Samples;Min_cycle;Max_cycle;Signal;HPM_P1;HPM_P2
2024/01/28 00:01:17;;;;;;;5.87;4.00;;;21.90;1.00;;;;;;2605395;54;20249;-62
2024/01/28 00:03:43;;;;;;;4.30;3.90;;;21.90;1.00;;;;;;2604621;54;20832;-62
2024/01/28 00:06:09;;;;;;;4.10;3.57;;;21.90;1.00;;;;;;2604993;39;21017;-64
2024/01/28 00:08:34;;;;;;;3.60;3.00;;;21.90;1.00;;;;;;2604151;39;20604;-66
2024/01/28 00:11:00;;;;;;;3.60;3.10;;;21.90;1.00;;;;;;2605220;54;20166;-65
2024/01/28 00:13:26;;;;;;;3.67;3.37;;;21.90;1.00;;;;;;2605047;54;20163;-64
2024/01/28 00:15:52;;;;;;;4.00;3.50;;;21.90;1.00;;;;;;2604777;54;20174;-63
2024/01/28 00:18:19;;;;;;;5.30;3.90;;;21.90;1.00;;;;;;2606595;39;20676;-63
2024/01/28 00:20:45;;;;;;;7.70;4.30;;;21.90;1.00;;;;;;2605114;54;20420;-64
2024/01/28 00:23:11;;;;;;;4.63;3.40;;;21.90;1.00;;;;;;2605842;39;20832;-63
2024/01/28 00:25:37;;;;;;;3.57;3.27;;;21.90;1.00;;;;;;2604513;54;20435;-64
2024/01/28 00:28:03;;;;;;;5.50;3.77;;;21.80;1.00;;;;;;2605241;54;20159;-64
2024/01/28 00:30:32;;;;;;;6.17;4.10;;;21.80;1.00;;;;;;2604717;54;20209;-64
2024/01/28 00:33:00;;;;;;;4.43;4.03;;;21.80;1.00;;;;;;2604944;39;22140;-64
2024/01/28 00:35:26;;;;;;;4.27;3.70;;;21.80;1.00;;;;;;2605290;54;20502;-64
2024/01/28 00:37:54;;;;;;;5.70;3.73;;;21.80;1.00;;;;;;2604261;54;20419;-64
2024/01/28 00:40:20;;;;;;;4.40;3.60;;;21.80;1.00;;;;;;2605189;39;21224;-64
2024/01/28 00:42:46;;;;;;;4.90;3.47;;;21.80;1.00;;;;;;2605418;54;20538;-63
2024/01/28 00:45:12;;;;;;;4.10;3.43;;;21.80;1.00;;;;;;2605162;54;20433;-64
2024/01/28 00:47:39;;;;;;;6.20;4.23;;;21.80;1.00;;;;;;2605124;47;20697;-64
2024/01/28 00:50:06;;;;;;;3.90;3.50;;;21.70;1.00;;;;;;2604566;54;20194;-63
2024/01/28 00:52:32;;;;;;;5.27;3.73;;;21.70;1.00;;;;;;2605422;54;20425;-63
2024/01/28 00:54:58;;;;;;;4.23;3.93;;;21.70;1.00;;;;;;2604603;54;20426;-64
2024/01/28 00:57:23;;;;;;;7.37;3.70;;;21.70;1.00;;;;;;2605556;54;20175;-63
2024/01/28 00:59:49;;;;;;;3.90;3.47;;;21.70;1.00;;;;;;2604525;54;20163;-63
2024/01/28 01:02:14;;;;;;;4.40;3.80;;;21.70;1.00;;;;;;2604592;47;20289;-63
2024/01/28 01:04:40;;;;;;;5.50;3.27;;;21.70;1.00;;;;;;2605221;54;20158;-63
2024/01/28 01:07:06;;;;;;;4.63;2.90;;;21.60;1.00;;;;;;2604266;54;20243;-64
2024/01/28 01:09:32;;;;;;;4.10;3.37;;;21.70;1.00;;;;;;2605375;54;20204;-63
2024/01/28 01:11:57;;;;;;;3.50;3.13;;;21.70;1.00;;;;;;2604940;49;20171;-64
2024/01/28 01:14:23;;;;;;;4.17;2.90;;;21.70;1.00;;;;;;2605296;39;20568;-63
2024/01/28 01:16:49;;;;;;;5.13;3.00;;;21.70;1.00;;;;;;2605079;54;20199;-64
2024/01/28 01:19:14;;;;;;;4.10;3.10;;;21.60;1.00;;;;;;2604750;47;20167;-63
2024/01/28 01:21:40;;;;;;;4.33;3.33;;;21.60;1.00;;;;;;2604878;54;20162;-63
2024/01/28 01:24:05;;;;;;;3.73;3.10;;;21.60;1.00;;;;;;2605096;39;20579;-63
2024/01/28 01:26:31;;;;;;;4.63;3.40;;;21.60;1.00;;;;;;2603631;47;20171;-60
2024/01/28 01:28:57;;;;;;;3.30;2.67;;;21.60;1.00;;;;;;2605136;39;20635;-60
2024/01/28 01:31:22;;;;;;;3.50;3.10;;;21.60;1.00;;;;;;2605503;39;20534;-60
2024/01/28 01:33:48;;;;;;;4.33;3.03;;;21.60;1.00;;;;;;2605344;47;20174;-60
2024/01/28 01:36:14;;;;;;;5.00;3.17;;;21.50;1.00;;;;;;2605852;47;20254;-61
2024/01/28 01:38:39;;;;;;;3.40;3.10;;;21.50;1.00;;;;;;2605748;54;20164;-60
2024/01/28 01:41:05;;;;;;;3.83;3.47;;;21.50;1.00;;;;;;2606309;39;20585;-60
2024/01/28 01:43:31;;;;;;;3.80;3.40;;;21.50;1.00;;;;;;2605638;47;20174;-60
2024/01/28 01:45:57;;;;;;;4.10;3.40;;;21.50;1.00;;;;;;2605866;54;20169;-60
2024/01/28 01:48:27;;;;;;;4.53;3.10;;;21.50;1.00;;;;;;2605904;47;20172;-60
2024/01/28 01:50:53;;;;;;;3.57;2.63;;;21.50;1.00;;;;;;2604398;54;20412;-60
2024/01/28 01:53:19;;;;;;;3.20;2.90;;;21.50;1.00;;;;;;2606014;47;20462;-60
2024/01/28 01:55:45;;;;;;;4.30;3.13;;;21.50;1.00;;;;;;2604541;54;20443;-60
2024/01/28 01:58:11;;;;;;;2.90;2.53;;;21.50;1.00;;;;;;2605493;54;20463;-60
2024/01/28 02:00:38;;;;;;;3.17;2.87;;;21.50;1.00;;;;;;2605628;54;20435;-62
2024/01/28 02:03:04;;;;;;;3.70;2.90;;;21.50;1.00;;;;;;2605585;54;20600;-60
2024/01/28 02:05:30;;;;;;;3.70;3.23;;;21.40;1.00;;;;;;2605045;54;20443;-61
2024/01/28 02:07:56;;;;;;;3.37;2.77;;;21.40;1.00;;;;;;2604845;54;20421;-61
2024/01/28 02:10:22;;;;;;;4.27;2.87;;;21.40;1.00;;;;;;2605158;54;20166;-61
2024/01/28 02:12:49;;;;;;;4.20;2.70;;;21.40;1.00;;;;;;2605292;54;20167;-59
2024/01/28 02:15:16;;;;;;;5.60;3.50;;;21.40;1.00;;;;;;2605618;54;20179;-60
2024/01/28 02:17:42;;;;;;;3.70;3.33;;;21.40;1.00;;;;;;2606083;54;20428;-61
2024/01/28 02:20:09;;;;;;;2.93;2.50;;;21.40;1.00;;;;;;2604960;54;20418;-60
2024/01/28 02:22:35;;;;;;;3.57;3.27;;;21.30;1.00;;;;;;2605983;31;20891;-60
2024/01/28 02:25:03;;;;;;;4.43;3.37;;;21.40;1.00;;;;;;2605674;54;20435;-59
2024/01/28 02:27:29;;;;;;;2.83;2.63;;;21.40;1.00;;;;;;2606043;39;20672;-60
2024/01/28 02:29:55;;;;;;;3.63;2.70;;;21.40;1.00;;;;;;2605552;54;20441;-60
2024/01/28 02:32:20;;;;;;;3.00;2.70;;;21.40;1.00;;;;;;2605844;54;21089;-60
2024/01/28 02:34:46;;;;;;;3.17;2.87;;;21.30;1.00;;;;;;2605513;54;20155;-63
2024/01/28 02:37:12;;;;;;;3.67;3.03;;;21.30;1.00;;;;;;2604955;47;20687;-62
2024/01/28 02:39:38;;;;;;;3.40;2.50;;;21.30;1.00;;;;;;2604949;47;20691;-63
2024/01/28 02:42:05;;;;;;;4.00;3.27;;;21.30;1.00;;;;;;2605650;54;20432;-63
2024/01/28 02:44:31;;;;;;;3.40;2.80;;;21.30;1.00;;;;;;2605172;54;21027;-65
2024/01/28 02:46:56;;;;;;;4.40;2.83;;;21.30;1.00;;;;;;2605611;54;20431;-65
2024/01/28 02:49:23;;;;;;;3.67;2.73;;;21.30;1.00;;;;;;2605108;54;20200;-65
2024/01/28 02:51:51;;;;;;;3.97;2.70;;;21.30;1.00;;;;;;2605807;54;20155;-65
2024/01/28 02:54:17;;;;;;;3.83;2.50;;;21.30;1.00;;;;;;2604791;54;22055;-65
2024/01/28 02:56:43;;;;;;;3.50;2.50;;;21.30;1.00;;;;;;2605634;54;20431;-65
2024/01/28 02:59:10;;;;;;;4.13;2.80;;;21.30;1.00;;;;;;2605384;47;20170;-65
2024/01/28 03:01:45;;;;;;;6.30;3.00;;;21.30;1.00;;;;;;2605566;54;20204;-65
2024/01/28 03:04:10;;;;;;;4.10;3.00;;;21.30;1.00;;;;;;2605574;54;20514;-66
2024/01/28 03:06:36;;;;;;;3.53;3.23;;;21.30;1.00;;;;;;2605010;54;20458;-65
2024/01/28 03:09:04;;;;;;;3.77;2.57;;;21.30;1.00;;;;;;2605209;54;20159;-65
2024/01/28 03:11:30;;;;;;;3.33;2.73;;;21.30;1.00;;;;;;2605045;54;20170;-64
2024/01/28 03:13:56;;;;;;;3.73;3.30;;;21.30;1.00;;;;;;2605594;39;21122;-64
2024/01/28 03:16:22;;;;;;;6.00;2.80;;;21.30;1.00;;;;;;2605647;47;20558;-64
2024/01/28 03:18:48;;;;;;;3.10;2.80;;;21.40;1.00;;;;;;2605439;54;20156;-66
2024/01/28 03:21:13;;;;;;;3.43;2.30;;;21.30;1.00;;;;;;2605630;54;20440;-64
2024/01/28 03:23:39;;;;;;;3.27;2.97;;;21.30;1.00;;;;;;2604975;54;20199;-65
2024/01/28 03:26:05;;;;;;;3.93;3.40;;;21.30;1.00;;;;;;2606290;54;20156;-65
2024/01/28 03:28:31;;;;;;;4.23;2.87;;;21.30;1.00;;;;;;2604153;54;20163;-65
2024/01/28 03:30:57;;;;;;;3.23;2.93;;;21.30;1.00;;;;;;2605901;54;20175;-66
2024/01/28 03:33:23;;;;;;;3.20;2.90;;;21.30;1.00;;;;;;2607051;31;20946;-64
2024/01/28 03:35:48;;;;;;;5.83;3.43;;;21.20;1.00;;;;;;2604894;47;20199;-65
2024/01/28 03:38:14;;;;;;;3.33;2.87;;;21.20;1.00;;;;;;2604985;54;20211;-64
2024/01/28 03:40:40;;;;;;;4.63;2.83;;;21.20;1.00;;;;;;2605744;54;20668;-65
2024/01/28 03:43:06;;;;;;;2.53;2.33;;;21.20;1.00;;;;;;2605473;50;20732;-66
2024/01/28 03:45:31;;;;;;;3.30;2.50;;;21.20;1.00;;;;;;2605396;54;20179;-63
2024/01/28 03:47:57;;;;;;;2.70;2.50;;;21.20;1.00;;;;;;2605223;54;20182;-61
2024/01/28 03:50:24;;;;;;;2.93;2.60;;;21.20;1.00;;;;;;2604862;54;21904;-62
2024/01/28 03:52:50;;;;;;;2.87;2.50;;;21.20;1.00;;;;;;2604821;54;20187;-62
2024/01/28 03:55:15;;;;;;;3.23;2.80;;;21.20;1.00;;;;;;2605655;54;20460;-62
2024/01/28 03:57:43;;;;;;;3.80;3.10;;;21.20;1.00;;;;;;2603530;54;20195;-62
2024/01/28 04:00:11;;;;;;;4.23;3.00;;;21.20;1.00;;;;;;2605540;54;20212;-61
2024/01/28 04:02:38;;;;;;;4.63;3.37;;;21.10;1.00;;;;;;2604234;54;20453;-63
2024/01/28 04:05:04;;;;;;;4.07;3.20;;;21.10;1.00;;;;;;2605016;54;20482;-63
2024/01/28 04:07:30;;;;;;;3.63;2.80;;;21.10;1.00;;;;;;2603947;54;20525;-62
2024/01/28 04:09:55;;;;;;;2.57;2.33;;;21.10;1.00;;;;;;2605041;54;20451;-62
2024/01/28 04:12:22;;;;;;;4.47;2.83;;;21.10;1.00;;;;;;2605186;54;20768;-62
2024/01/28 04:14:47;;;;;;;3.20;2.80;;;21.10;1.00;;;;;;2604672;39;20218;-62
2024/01/28 04:17:13;;;;;;;2.90;2.50;;;21.10;1.00;;;;;;2605199;54;20431;-62
2024/01/28 04:19:39;;;;;;;3.17;2.87;;;21.10;1.00;;;;;;2605034;54;20168;-63
2024/01/28 04:22:06;;;;;;;4.00;3.10;;;21.10;1.00;;;;;;2604747;54;20160;-62
2024/01/28 04:24:32;;;;;;;5.30;3.03;;;21.00;1.00;;;;;;2604603;54;20150;-63
2024/01/28 04:26:58;;;;;;;2.90;2.57;;;21.10;1.00;;;;;;2605373;54;20446;-63
2024/01/28 04:29:23;;;;;;;3.27;2.97;;;21.00;1.00;;;;;;2604911;54;21639;-62
2024/01/28 04:31:50;;;;;;;2.73;2.40;;;21.00;1.00;;;;;;2604796;47;20209;-62
2024/01/28 04:34:15;;;;;;;3.60;2.87;;;21.00;1.00;;;;;;2605531;54;20250;-62
2024/01/28 04:36:41;;;;;;;2.90;2.60;;;21.00;1.00;;;;;;2604827;54;20440;-62
2024/01/28 04:39:07;;;;;;;3.20;2.83;;;21.00;1.00;;;;;;2605464;54;20157;-62
2024/01/28 04:41:33;;;;;;;3.83;3.10;;;21.00;1.00;;;;;;2605379;54;20155;-65
2024/01/28 04:43:59;;;;;;;3.20;2.90;;;21.00;1.00;;;;;;2604811;47;20427;-63
2024/01/28 04:46:24;;;;;;;3.37;3.07;;;21.00;1.00;;;;;;2605370;54;20166;-62
2024/01/28 04:48:50;;;;;;;4.07;2.80;;;21.00;1.00;;;;;;2605272;54;20158;-59
2024/01/28 04:51:15;;;;;;;4.73;2.67;;;21.00;1.00;;;;;;2605142;54;20170;-64
2024/01/28 04:53:41;;;;;;;2.73;2.10;;;21.00;1.00;;;;;;2605476;54;20147;-63
2024/01/28 04:56:09;;;;;;;3.00;2.57;;;21.00;1.00;;;;;;2604903;54;20226;-64
2024/01/28 04:58:35;;;;;;;4.93;2.03;;;21.00;1.00;;;;;;2605451;54;20164;-64
2024/01/28 05:01:00;;;;;;;3.40;2.70;;;21.00;1.00;;;;;;2605671;54;20451;-63
2024/01/28 05:03:26;;;;;;;2.53;2.07;;;20.90;1.00;;;;;;2604025;54;20229;-64
2024/01/28 05:05:52;;;;;;;7.30;3.10;;;21.00;1.00;;;;;;2605261;54;20798;-62
2024/01/28 05:08:18;;;;;;;4.47;3.20;;;21.00;1.00;;;;;;2604789;54;20199;-62
2024/01/28 05:10:44;;;;;;;4.13;2.70;;;21.00;1.00;;;;;;2606219;54;20527;-63
2024/01/28 05:13:09;;;;;;;3.50;2.70;;;21.00;1.00;;;;;;2606002;54;20255;-63
2024/01/28 05:15:35;;;;;;;3.67;2.50;;;20.90;1.00;;;;;;2606003;54;20270;-63
2024/01/28 05:18:01;;;;;;;5.00;2.73;;;20.90;1.00;;;;;;2604950;54;20191;-62
2024/01/28 05:20:27;;;;;;;4.67;3.03;;;21.00;1.00;;;;;;2605829;54;20180;-61
2024/01/28 05:22:52;;;;;;;4.27;2.90;;;21.00;1.00;;;;;;2605027;54;20171;-63
2024/01/28 05:25:18;;;;;;;3.87;2.63;;;21.00;1.00;;;;;;2606246;47;21617;-63
2024/01/28 05:27:44;;;;;;;4.67;2.83;;;20.90;1.00;;;;;;2604838;54;20657;-61
2024/01/28 05:30:10;;;;;;;4.90;2.80;;;20.90;1.00;;;;;;2605939;52;20285;-63
2024/01/28 05:32:35;;;;;;;3.77;2.67;;;20.90;1.00;;;;;;2605528;54;20171;-62
2024/01/28 05:35:03;;;;;;;2.70;2.23;;;20.90;1.00;;;;;;2605592;54;20430;-62
2024/01/28 05:37:29;;;;;;;3.10;2.10;;;20.90;1.00;;;;;;2605897;39;20564;-62
2024/01/28 05:39:56;;;;;;;3.47;2.47;;;20.90;1.00;;;;;;2606121;47;20431;-62
2024/01/28 05:42:22;;;;;;;2.80;2.10;;;21.00;1.00;;;;;;2605302;54;20428;-62
2024/01/28 05:44:48;;;;;;;2.87;2.20;;;21.00;1.00;;;;;;2606086;54;21590;-62
2024/01/28 05:47:14;;;;;;;3.70;2.17;;;21.00;1.00;;;;;;2605297;54;20216;-62
2024/01/28 05:49:40;;;;;;;3.40;2.23;;;21.00;1.00;;;;;;2606189;54;20168;-63
2024/01/28 05:52:06;;;;;;;1.87;1.57;;;21.00;1.00;;;;;;2604682;54;20431;-63
2024/01/28 05:54:32;;;;;;;5.93;2.10;;;21.00;1.00;;;;;;2605277;39;21146;-63
2024/01/28 05:56:59;;;;;;;2.73;2.13;;;21.00;1.00;;;;;;2605901;54;20442;-63
2024/01/28 05:59:24;;;;;;;2.33;2.00;;;21.00;1.00;;;;;;2605850;39;22551;-64
2024/01/28 06:01:50;;;;;;;2.87;1.90;;;21.00;1.00;;;;;;2604181;54;20466;-63
2024/01/28 06:04:16;;;;;;;3.53;2.17;;;21.00;1.00;;;;;;2605109;54;21078;-61
2024/01/28 06:06:42;;;;;;;3.93;2.67;;;21.00;1.00;;;;;;2605605;54;20161;-61
2024/01/28 06:09:09;;;;;;;3.47;2.07;;;21.00;1.00;;;;;;2605757;54;20175;-60
2024/01/28 06:11:36;;;;;;;2.87;2.47;;;21.00;1.00;;;;;;2606105;54;20427;-61
2024/01/28 06:14:03;;;;;;;2.50;2.30;;;21.00;1.00;;;;;;2604897;54;20470;-61
2024/01/28 06:16:29;;;;;;;3.00;2.50;;;21.00;1.00;;;;;;2606581;39;21376;-63
2024/01/28 06:18:56;;;;;;;2.97;1.90;;;21.10;1.00;;;;;;2605673;54;20574;-62
2024/01/28 06:21:22;;;;;;;2.23;2.00;;;21.00;1.00;;;;;;2605227;54;20414;-62
2024/01/28 06:23:47;;;;;;;2.37;2.10;;;21.00;1.00;;;;;;2605119;54;20423;-62
2024/01/28 06:26:13;;;;;;;2.90;2.10;;;21.00;1.00;;;;;;2605890;54;20189;-62
2024/01/28 06:28:39;;;;;;;2.80;1.80;;;21.00;1.00;;;;;;2605138;54;20166;-63
2024/01/28 06:31:05;;;;;;;3.13;1.90;;;21.00;1.00;;;;;;2604221;54;20166;-62
2024/01/28 06:33:31;;;;;;;3.07;2.43;;;21.00;1.00;;;;;;2605312;54;20160;-63
2024/01/28 06:35:57;;;;;;;2.07;1.63;;;21.00;1.00;;;;;;2605367;54;20429;-62
2024/01/28 06:38:22;;;;;;;2.60;2.23;;;21.00;1.00;;;;;;2605503;54;20177;-61
2024/01/28 06:40:48;;;;;;;3.37;2.10;;;21.00;1.00;;;;;;2605873;54;20155;-61
2024/01/28 06:43:14;;;;;;;4.17;2.43;;;21.00;1.00;;;;;;2603656;54;21601;-61
2024/01/28 06:45:39;;;;;;;2.90;2.60;;;21.10;1.00;;;;;;2604833;54;20150;-61
2024/01/28 06:48:06;;;;;;;3.37;2.23;;;21.00;1.00;;;;;;2604692;39;20987;-62
2024/01/28 06:50:32;;;;;;;3.50;2.03;;;21.00;1.00;;;;;;2605724;54;20211;-62
2024/01/28 06:53:01;;;;;;;3.37;2.33;;;21.10;1.00;;;;;;2604714;47;20529;-62
2024/01/28 06:55:27;;;;;;;2.00;1.80;;;21.00;1.00;;;;;;2605197;39;20578;-60
2024/01/28 06:57:52;;;;;;;2.70;2.20;;;21.10;1.00;;;;;;2604163;54;20522;-62
2024/01/28 07:00:18;;;;;;;2.33;2.13;;;21.10;1.00;;;;;;2604550;54;20196;-62
2024/01/28 07:02:45;;;;;;;4.23;1.80;;;21.10;1.00;;;;;;2604115;54;20199;-62
2024/01/28 07:05:11;;;;;;;2.27;1.80;;;21.00;1.00;;;;;;2605099;54;20158;-61
2024/01/28 07:07:38;;;;;;;4.10;2.47;;;21.00;1.00;;;;;;2604828;54;20443;-62
2024/01/28 07:10:05;;;;;;;4.23;2.30;;;21.00;1.00;;;;;;2605278;47;20411;-62
2024/01/28 07:12:30;;;;;;;3.17;2.40;;;21.00;1.00;;;;;;2605390;54;20431;-62
2024/01/28 07:14:57;;;;;;;3.80;2.30;;;21.10;1.00;;;;;;2605422;54;20595;-62
2024/01/28 07:17:23;;;;;;;2.33;1.63;;;21.00;1.00;;;;;;2605043;54;20419;-63
2024/01/28 07:19:49;;;;;;;2.83;2.13;;;21.00;1.00;;;;;;2606157;39;20540;-63
2024/01/28 07:22:14;;;;;;;3.57;2.40;;;21.10;1.00;;;;;;2606010;39;20805;-62
2024/01/28 07:24:40;;;;;;;3.00;2.43;;;21.00;1.00;;;;;;2605632;54;20178;-62
2024/01/28 07:27:06;;;;;;;3.40;2.33;;;21.10;1.00;;;;;;2605468;54;20163;-61
2024/01/28 07:29:32;;;;;;;2.00;1.63;;;21.00;1.00;;;;;;2604972;47;20439;-62
2024/01/28 07:31:57;;;;;;;2.60;2.30;;;21.10;1.00;;;;;;2604627;46;20171;-62
2024/01/28 07:34:23;;;;;;;2.83;2.50;;;21.00;1.00;;;;;;2606008;54;20174;-62
2024/01/28 07:36:51;;;;;;;3.50;2.80;;;21.00;1.00;;;;;;2603934;47;20217;-63
2024/01/28 07:39:17;;;;;;;2.43;2.10;;;21.10;1.00;;;;;;2604871;54;20226;-62
2024/01/28 07:41:42;;;;;;;3.03;2.47;;;21.00;1.00;;;;;;2605265;47;20439;-62
2024/01/28 07:44:08;;;;;;;1.87;1.70;;;21.10;1.00;;;;;;2604093;47;20177;-62
2024/01/28 07:46:34;;;;;;;3.90;2.80;;;21.10;1.00;;;;;;2602552;54;21040;-60
2024/01/28 07:48:59;;;;;;;2.57;2.30;;;21.40;1.00;;;;;;2603672;51;20677;-61
2024/01/28 07:51:25;;;;;;;3.83;2.40;;;21.60;1.00;;;;;;2605611;54;20759;-61
2024/01/28 07:53:51;;;;;;;4.90;3.00;;;21.80;1.00;;;;;;2605128;39;20542;-62
2024/01/28 07:56:17;;;;;;;3.43;2.23;;;22.00;1.00;;;;;;2603480;39;20593;-60
2024/01/28 07:58:42;;;;;;;2.67;2.30;;;22.20;1.00;;;;;;2604388;54;20168;-58
2024/01/28 08:01:08;;;;;;;2.73;2.20;;;22.30;1.00;;;;;;2603967;54;20212;-58
2024/01/28 08:03:34;;;;;;;3.57;2.63;;;22.40;1.00;;;;;;2603047;54;20708;-62
2024/01/28 08:05:59;;;;;;;2.50;2.27;;;22.40;1.00;;;;;;2601447;47;20171;-62
2024/01/28 08:08:25;;;;;;;3.00;2.47;;;22.30;1.00;;;;;;2604005;47;20204;-61
2024/01/28 08:10:51;;;;;;;2.30;2.10;;;22.00;1.00;;;;;;2600470;54;20672;-61
2024/01/28 08:13:19;;;;;;;2.87;2.40;;;21.90;1.00;;;;;;2604881;54;20163;-61
2024/01/28 08:15:45;;;;;;;3.20;2.50;;;21.70;1.00;;;;;;2603221;54;20531;-61
2024/01/28 08:18:11;;;;;;;2.47;2.27;;;21.70;1.00;;;;;;2601710;54;20442;-62
2024/01/28 08:20:37;;;;;;;3.80;2.83;;;21.70;1.00;;;;;;2603196;54;20441;-60
2024/01/28 08:23:04;;;;;;;2.93;2.50;;;21.80;1.00;;;;;;2600895;47;20203;-59
2024/01/28 08:25:29;;;;;;;3.87;2.53;;;22.10;1.00;;;;;;2603321;54;20486;-64
2024/01/28 08:27:56;;;;;;;3.03;2.80;;;22.30;1.00;;;;;;2602063;54;20524;-65
2024/01/28 08:30:23;;;;;;;4.70;2.30;;;22.10;1.00;;;;;;2604529;39;20584;-66
2024/01/28 08:32:50;;;;;;;3.10;2.50;;;22.00;1.00;;;;;;2605566;54;20945;-65
2024/01/28 08:35:17;;;;;;;3.20;2.13;;;21.90;1.00;;;;;;2605491;54;20519;-65
2024/01/28 08:37:42;;;;;;;3.40;2.73;;;21.90;1.00;;;;;;2605213;54;20650;-64
2024/01/28 08:40:09;;;;;;;3.30;2.43;;;21.90;1.00;;;;;;2606128;39;20869;-64
2024/01/28 08:42:35;;;;;;;2.63;2.03;;;21.90;1.00;;;;;;2605029;54;20172;-64
2024/01/28 08:45:00;;;;;;;3.73;2.63;;;21.90;1.00;;;;;;2606279;47;21054;-64
2024/01/28 08:47:26;;;;;;;3.80;2.90;;;22.10;1.00;;;;;;2605209;47;20438;-62
2024/01/28 08:49:52;;;;;;;2.63;2.37;;;22.30;1.00;;;;;;2604895;54;20491;-63
2024/01/28 08:52:20;;;;;;;2.63;2.43;;;22.50;1.00;;;;;;2606637;54;21919;-64
2024/01/28 08:54:46;;;;;;;4.60;2.97;;;22.60;1.00;;;;;;2604509;54;20429;-69
2024/01/28 08:57:12;;;;;;;3.23;2.93;;;22.60;1.00;;;;;;2605344;54;20451;-69
2024/01/28 08:59:38;;;;;;;4.17;2.57;;;22.70;1.00;;;;;;2605360;39;20868;-73
2024/01/28 09:02:04;;;;;;;3.90;3.10;;;23.00;1.00;;;;;;2605924;54;20472;-70
2024/01/28 09:04:30;;;;;;;4.90;2.50;;;23.20;1.00;;;;;;2604161;47;20168;-67
2024/01/28 09:06:56;;;;;;;3.67;3.37;;;23.10;1.00;;;;;;2604908;50;20172;-68
2024/01/28 09:09:22;;;;;;;3.70;2.70;;;23.00;1.00;;;;;;2607043;54;20450;-68
2024/01/28 09:11:48;;;;;;;5.93;2.50;;;23.10;1.00;;;;;;2605865;50;20445;-67
2024/01/28 09:14:14;;;;;;;5.27;3.10;;;23.00;1.00;;;;;;2606488;54;20421;-68
2024/01/28 09:16:39;;;;;;;4.93;2.90;;;22.80;1.00;;;;;;2606827;39;20426;-68
2024/01/28 09:19:05;;;;;;;3.30;2.70;;;22.70;1.00;;;;;;2606221;54;20161;-68
2024/01/28 09:21:31;;;;;;;2.60;2.10;;;22.80;1.00;;;;;;2607624;39;20540;-68
2024/01/28 09:23:58;;;;;;;5.63;2.97;;;22.80;1.00;;;;;;2606714;47;20463;-69
2024/01/28 09:26:24;;;;;;;3.17;2.57;;;22.60;1.00;;;;;;2607382;54;20179;-68
2024/01/28 09:28:50;;;;;;;3.00;2.73;;;22.50;1.00;;;;;;2606703;54;20521;-68
2024/01/28 09:31:16;;;;;;;3.50;3.20;;;22.50;1.00;;;;;;2607211;54;20967;-67
2024/01/28 09:33:42;;;;;;;4.30;3.03;;;22.70;1.00;;;;;;2606785;54;20174;-67
2024/01/28 09:36:08;;;;;;;3.57;2.33;;;22.80;1.00;;;;;;2607226;54;20264;-66
2024/01/28 09:38:34;;;;;;;3.20;2.73;;;22.90;1.00;;;;;;2606501;54;20514;-67
2024/01/28 09:41:23;;;;;;;2.33;2.17;;;23.10;1.00;;;;;;2607346;54;20447;-66
2024/01/28 09:43:49;;;;;;;3.00;2.67;;;23.30;1.00;;;;;;2606354;54;20164;-66
2024/01/28 09:46:16;;;;;;;2.57;2.37;;;23.50;1.00;;;;;;2606322;54;20506;-65
2024/01/28 09:48:45;;;;;;;3.20;2.90;;;23.90;1.00;;;;;;2606677;54;20196;-65
2024/01/28 09:51:12;;;;;;;3.00;2.70;;;24.80;1.00;;;;;;2606859;39;20814;-65
2024/01/28 09:53:39;;;;;;;2.70;2.50;;;25.70;1.00;;;;;;2606833;54;20421;-64
2024/01/28 09:56:05;;;;;;;3.00;2.57;;;26.60;1.00;;;;;;2606861;31;20937;-63
2024/01/28 09:58:32;;;;;;;3.03;2.73;;;27.40;1.00;;;;;;2605860;39;21055;-64
2024/01/28 10:00:58;;;;;;;2.87;2.50;;;27.90;1.00;;;;;;2606808;54;20438;-64
2024/01/28 10:03:23;;;;;;;3.83;3.43;;;28.20;1.00;;;;;;2605600;54;21485;-65
2024/01/28 10:05:49;;;;;;;2.67;2.47;;;27.30;1.00;;;;;;2605821;54;20446;-68
2024/01/28 10:08:15;;;;;;;3.20;2.90;;;26.00;1.00;;;;;;2606336;54;20197;-66
2024/01/28 10:10:41;;;;;;;3.30;2.80;;;25.10;1.00;;;;;;2606940;54;20342;-66
2024/01/28 10:13:07;;;;;;;3.00;2.70;;;24.50;1.00;;;;;;2606939;54;20444;-67
2024/01/28 10:15:33;;;;;;;3.03;2.77;;;24.00;1.00;;;;;;2606234;54;20437;-68
2024/01/28 10:17:59;;;;;;;2.97;2.47;;;23.70;1.00;;;;;;2605830;54;20446;-67
2024/01/28 10:20:26;;;;;;;3.70;2.67;;;23.40;1.00;;;;;;2606386;54;20181;-67
2024/01/28 10:22:53;;;;;;;3.33;2.70;;;23.30;1.00;;;;;;2602411;54;21185;-62
2024/01/28 10:25:19;;;;;;;2.83;2.60;;;24.50;1.00;;;;;;2603762;54;20480;-63
2024/01/28 10:27:47;;;;;;;4.53;3.73;;;26.40;1.00;;;;;;2603955;54;20447;-63
2024/01/28 10:30:15;;;;;;;9.83;2.40;;;28.00;1.00;;;;;;2603823;54;20437;-63
2024/01/28 10:32:42;;;;;;;2.77;2.47;;;28.90;1.00;;;;;;2605761;54;20438;-63
2024/01/28 10:35:09;;;;;;;2.73;2.37;;;29.70;1.00;;;;;;2602986;47;20547;-62
2024/01/28 10:37:35;;;;;;;2.47;2.13;;;30.10;1.00;;;;;;2602703;54;20416;-64
2024/01/28 10:40:07;;;;;;;3.10;2.77;;;30.50;1.00;;;;;;2603268;47;20427;-61
2024/01/28 10:42:41;;;;;;;2.50;2.30;;;30.70;1.00;;;;;;2602576;54;20424;-63
2024/01/28 10:45:11;;;;;;;2.80;2.50;;;30.90;1.00;;;;;;2606163;39;20818;-66
2024/01/28 10:47:44;;;;;;;2.80;2.27;;;31.00;1.00;;;;;;2605273;54;20436;-64
2024/01/28 10:50:13;;;;;;;3.33;3.03;;;30.80;1.00;;;;;;2605135;54;20570;-63
2024/01/28 10:52:39;;;;;;;2.40;2.07;;;29.30;1.00;;;;;;2605599;54;20404;-64
2024/01/28 10:55:06;;;;;;;2.27;2.07;;;28.00;1.00;;;;;;2603385;54;20435;-67
2024/01/28 10:57:36;;;;;;;2.30;2.00;;;27.00;1.00;;;;;;2603048;50;20427;-67
2024/01/28 11:00:06;;;;;;;3.90;1.87;;;26.30;1.00;;;;;;2602886;54;21611;-68
2024/01/28 11:02:34;;;;;;;2.63;2.30;;;26.00;1.00;;;;;;2603698;54;20458;-68
2024/01/28 11:05:02;;;;;;;2.40;2.20;;;25.80;1.00;;;;;;2605816;47;20443;-70
2024/01/28 11:07:28;;;;;;;2.23;2.00;;;25.60;1.00;;;;;;2603760;54;20550;-71
2024/01/28 11:09:54;;;;;;;2.67;2.30;;;25.30;1.00;;;;;;2602879;54;20433;-69
2024/01/28 11:12:21;;;;;;;1.93;1.50;;;25.20;1.00;;;;;;2602888;54;20427;-67
2024/01/28 11:14:47;;;;;;;2.67;1.80;;;25.20;1.00;;;;;;2606585;54;20507;-70
2024/01/28 11:17:13;;;;;;;4.10;1.87;;;25.10;1.00;;;;;;2605554;54;21565;-68
2024/01/28 11:19:39;;;;;;;2.60;2.20;;;25.10;1.00;;;;;;2603787;54;20445;-68
2024/01/28 11:22:13;;;;;;;3.80;2.53;;;25.00;1.00;;;;;;2605753;39;20839;-68
2024/01/28 11:24:52;;;;;;;8.23;2.23;;;24.90;1.00;;;;;;2604118;47;20173;-73
2024/01/28 11:27:21;;;;;;;3.70;2.17;;;24.00;1.00;;;;;;2605059;54;20526;-74
2024/01/28 11:29:47;;;;;;;3.93;2.00;;;22.90;1.00;;;;;;2606313;54;20480;-71
2024/01/28 11:32:16;;;;;;;4.33;2.50;;;22.40;1.00;;;;;;2604875;39;20846;-72
2024/01/28 11:34:45;;;;;;;3.33;2.00;;;22.70;1.00;;;;;;2602846;54;20207;-74
2024/01/28 11:37:16;;;;;;;5.73;2.03;;;23.20;1.00;;;;;;2604256;54;20424;-76
2024/01/28 11:39:44;;;;;;;4.23;2.03;;;23.50;1.00;;;;;;2606369;54;20427;-73
2024/01/28 11:42:10;;;;;;;3.87;2.07;;;23.70;1.00;;;;;;2605810;39;21336;-73
2024/01/28 11:44:36;;;;;;;4.27;2.53;;;23.80;1.00;;;;;;2606068;54;20434;-75
2024/01/28 11:47:03;;;;;;;2.10;1.90;;;23.90;1.00;;;;;;2605388;54;20210;-72
2024/01/28 11:49:29;;;;;;;2.43;1.90;;;23.90;1.00;;;;;;2605124;54;20415;-73
2024/01/28 11:51:55;;;;;;;2.10;1.90;;;24.00;1.00;;;;;;2605715;54;20425;-73
2024/01/28 11:54:21;;;;;;;1.70;1.50;;;24.00;1.00;;;;;;2604306;54;21471;-72
2024/01/28 11:56:47;;;;;;;2.03;1.73;;;24.00;1.00;;;;;;2603729;54;20163;-73
2024/01/28 11:59:13;;;;;;;2.70;1.90;;;24.10;1.00;;;;;;2605286;54;21087;-74
2024/01/28 12:01:39;;;;;;;2.93;2.40;;;24.10;1.00;;;;;;2604555;39;21743;-74
2024/01/28 12:04:09;;;;;;;3.67;2.40;;;24.10;1.00;;;;;;2604540;54;20161;-61
2024/01/28 12:06:36;;;;;;;2.10;1.67;;;24.10;1.00;;;;;;2604765;39;20810;-63
2024/01/28 12:09:02;;;;;;;4.80;2.40;;;24.10;1.00;;;;;;2604136;39;21826;-63
2024/01/28 12:11:31;;;;;;;6.60;2.40;;;24.10;1.00;;;;;;2604009;51;20512;-64
2024/01/28 12:13:56;;;;;;;5.77;3.00;;;24.10;1.00;;;;;;2604041;54;20189;-61
2024/01/28 12:16:24;;;;;;;5.67;2.37;;;24.40;1.00;;;;;;2605144;54;20426;-61
2024/01/28 12:18:54;;;;;;;3.50;2.20;;;24.70;1.00;;;;;;2603876;54;20182;-62
2024/01/28 12:21:24;;;;;;;7.57;2.87;;;24.90;1.00;;;;;;2604161;54;21413;-65
2024/01/28 12:23:56;;;;;;;7.23;2.40;;;24.90;1.00;;;;;;2604546;54;20429;-66
2024/01/28 12:26:23;;;;;;;3.97;2.80;;;25.00;1.00;;;;;;2605235;54;20427;-66
2024/01/28 12:28:50;;;;;;;5.33;2.53;;;25.00;1.00;;;;;;2605385;54;20416;-65
2024/01/28 12:31:21;;;;;;;5.30;2.90;;;25.10;1.00;;;;;;2603368;54;20430;-67
2024/01/28 12:33:48;;;;;;;3.70;2.40;;;25.10;1.00;;;;;;2603010;54;20463;-68
2024/01/28 12:36:14;;;;;;;3.50;2.10;;;25.10;1.00;;;;;;2604372;54;20429;-67
2024/01/28 12:38:39;;;;;;;5.00;2.40;;;25.20;1.00;;;;;;2604122;54;20441;-66
2024/01/28 12:41:07;;;;;;;7.33;2.30;;;25.40;1.00;;;;;;2605683;47;20204;-64
2024/01/28 12:43:33;;;;;;;5.67;3.40;;;25.60;1.00;;;;;;2603336;48;20419;-66
2024/01/28 12:45:59;;;;;;;2.60;2.07;;;25.50;1.00;;;;;;2604410;54;20436;-68
2024/01/28 12:48:25;;;;;;;5.03;2.67;;;25.60;1.00;;;;;;2604691;47;20529;-65
2024/01/28 12:50:50;;;;;;;3.33;2.17;;;25.50;1.00;;;;;;2604987;54;20959;-63
2024/01/28 12:53:17;;;;;;;4.77;2.00;;;25.50;1.00;;;;;;2605273;39;20637;-68